sensor_id;sensor_type;location;lat;lon;timestamp;P1;durP1;ratioP1;P2;durP2;ratioP2
11443;SDS011;5778;47.856;12.154;2023-10-13T00:00:14;6.73;;;4.53;;
11443;SDS011;5778;47.856;12.154;2023-10-13T00:02:55;7.50;;;4.00;;
11443;SDS011;5778;47.856;12.154;2023-10-13T00:05:26;7.70;;;4.10;;
11443;SDS011;5778;47.856;12.154;2023-10-13T00:07:54;7.43;;;4.00;;
11443;SDS011;5778;47.856;12.154;2023-10-13T00:10:21;8.67;;;4.60;;
11443;SDS011;5778;47.856;12.154;2023-10-13T00:12:49;9.03;;;4.60;;
11443;SDS011;5778;47.856;12.154;2023-10-13T00:15:18;7.13;;;4.33;;
11443;SDS011;5778;47.856;12.154;2023-10-13T00:17:46;6.03;;;3.90;;
11443;SDS011;5778;47.856;12.154;2023-10-13T00:20:13;5.53;;;4.07;;
11443;SDS011;5778;47.856;12.154;2023-10-13T00:23:01;7.77;;;4.30;;
11443;SDS011;5778;47.856;12.154;2023-10-13T00:25:31;5.20;;;4.17;;
11443;SDS011;5778;47.856;12.154;2023-10-13T00:28:09;6.97;;;4.27;;
11443;SDS011;5778;47.856;12.154;2023-10-13T00:30:37;7.67;;;3.90;;
11443;SDS011;5778;47.856;12.154;2023-10-13T00:33:04;8.97;;;3.90;;
11443;SDS011;5778;47.856;12.154;2023-10-13T00:35:32;8.97;;;4.73;;
11443;SDS011;5778;47.856;12.154;2023-10-13T00:38:02;5.93;;;3.67;;
11443;SDS011;5778;47.856;12.154;2023-10-13T00:40:38;7.30;;;3.87;;
11443;SDS011;5778;47.856;12.154;2023-10-13T00:43:09;6.77;;;3.60;;
11443;SDS011;5778;47.856;12.154;2023-10-13T00:46:00;8.30;;;3.90;;
11443;SDS011;5778;47.856;12.154;2023-10-13T00:48:40;5.97;;;3.60;;
11443;SDS011;5778;47.856;12.154;2023-10-13T00:51:08;7.23;;;3.97;;
11443;SDS011;5778;47.856;12.154;2023-10-13T00:53:44;4.93;;;3.77;;
11443;SDS011;5778;47.856;12.154;2023-10-13T00:56:12;5.83;;;3.60;;
11443;SDS011;5778;47.856;12.154;2023-10-13T00:58:45;5.87;;;3.63;;
11443;SDS011;5778;47.856;12.154;2023-10-13T01:01:13;6.20;;;4.13;;
11443;SDS011;5778;47.856;12.154;2023-10-13T01:03:48;5.20;;;3.87;;
11443;SDS011;5778;47.856;12.154;2023-10-13T01:06:16;5.70;;;3.80;;
11443;SDS011;5778;47.856;12.154;2023-10-13T01:08:45;6.60;;;3.80;;
11443;SDS011;5778;47.856;12.154;2023-10-13T01:11:16;7.30;;;4.50;;
11443;SDS011;5778;47.856;12.154;2023-10-13T01:13:44;5.93;;;4.17;;
11443;SDS011;5778;47.856;12.154;2023-10-13T01:16:14;7.93;;;4.10;;
11443;SDS011;5778;47.856;12.154;2023-10-13T01:18:42;12.00;;;4.70;;
11443;SDS011;5778;47.856;12.154;2023-10-13T01:21:13;7.03;;;3.87;;
11443;SDS011;5778;47.856;12.154;2023-10-13T01:23:46;6.90;;;3.73;;
11443;SDS011;5778;47.856;12.154;2023-10-13T01:26:14;6.60;;;3.70;;
11443;SDS011;5778;47.856;12.154;2023-10-13T01:28:46;9.37;;;3.80;;
11443;SDS011;5778;47.856;12.154;2023-10-13T01:31:16;4.60;;;3.53;;
11443;SDS011;5778;47.856;12.154;2023-10-13T01:33:53;5.93;;;3.40;;
11443;SDS011;5778;47.856;12.154;2023-10-13T01:36:20;5.67;;;3.37;;
11443;SDS011;5778;47.856;12.154;2023-10-13T01:38:49;4.57;;;3.60;;
11443;SDS011;5778;47.856;12.154;2023-10-13T01:41:15;6.63;;;3.90;;
11443;SDS011;5778;47.856;12.154;2023-10-13T01:43:42;6.83;;;3.53;;
11443;SDS011;5778;47.856;12.154;2023-10-13T01:46:09;4.37;;;3.70;;
11443;SDS011;5778;47.856;12.154;2023-10-13T01:48:39;6.57;;;3.50;;
11443;SDS011;5778;47.856;12.154;2023-10-13T01:51:05;5.83;;;3.23;;
11443;SDS011;5778;47.856;12.154;2023-10-13T01:53:35;6.03;;;3.40;;
11443;SDS011;5778;47.856;12.154;2023-10-13T01:56:04;6.23;;;3.83;;
11443;SDS011;5778;47.856;12.154;2023-10-13T01:58:36;5.03;;;3.50;;
11443;SDS011;5778;47.856;12.154;2023-10-13T02:01:03;5.70;;;3.50;;
11443;SDS011;5778;47.856;12.154;2023-10-13T02:03:32;5.23;;;3.40;;
11443;SDS011;5778;47.856;12.154;2023-10-13T02:05:58;5.97;;;3.70;;
11443;SDS011;5778;47.856;12.154;2023-10-13T02:08:30;4.93;;;3.30;;
11443;SDS011;5778;47.856;12.154;2023-10-13T02:10:56;6.60;;;3.47;;
11443;SDS011;5778;47.856;12.154;2023-10-13T02:13:28;6.40;;;3.80;;
11443;SDS011;5778;47.856;12.154;2023-10-13T02:15:56;7.10;;;3.53;;
11443;SDS011;5778;47.856;12.154;2023-10-13T02:18:28;3.80;;;3.23;;
11443;SDS011;5778;47.856;12.154;2023-10-13T02:21:02;6.57;;;3.90;;
11443;SDS011;5778;47.856;12.154;2023-10-13T02:23:29;5.00;;;3.00;;
11443;SDS011;5778;47.856;12.154;2023-10-13T02:25:59;8.07;;;3.53;;
11443;SDS011;5778;47.856;12.154;2023-10-13T02:28:26;7.80;;;3.60;;
11443;SDS011;5778;47.856;12.154;2023-10-13T02:31:01;5.07;;;3.50;;
11443;SDS011;5778;47.856;12.154;2023-10-13T02:33:28;3.63;;;3.27;;
11443;SDS011;5778;47.856;12.154;2023-10-13T02:35:56;6.70;;;4.20;;
11443;SDS011;5778;47.856;12.154;2023-10-13T02:38:23;6.13;;;3.80;;
11443;SDS011;5778;47.856;12.154;2023-10-13T02:40:59;5.37;;;3.53;;
11443;SDS011;5778;47.856;12.154;2023-10-13T02:43:33;6.07;;;3.47;;
11443;SDS011;5778;47.856;12.154;2023-10-13T02:46:00;6.03;;;3.50;;
11443;SDS011;5778;47.856;12.154;2023-10-13T02:48:27;4.83;;;3.73;;
11443;SDS011;5778;47.856;12.154;2023-10-13T02:50:57;5.20;;;4.00;;
11443;SDS011;5778;47.856;12.154;2023-10-13T02:53:27;6.00;;;3.50;;
11443;SDS011;5778;47.856;12.154;2023-10-13T02:55:55;7.70;;;3.53;;
11443;SDS011;5778;47.856;12.154;2023-10-13T02:58:30;5.03;;;3.57;;
11443;SDS011;5778;47.856;12.154;2023-10-13T03:01:08;6.03;;;4.10;;
11443;SDS011;5778;47.856;12.154;2023-10-13T03:03:43;5.07;;;4.23;;
11443;SDS011;5778;47.856;12.154;2023-10-13T03:06:15;5.77;;;3.87;;
11443;SDS011;5778;47.856;12.154;2023-10-13T03:08:43;6.03;;;3.80;;
11443;SDS011;5778;47.856;12.154;2023-10-13T03:11:10;9.17;;;4.60;;
11443;SDS011;5778;47.856;12.154;2023-10-13T03:13:37;4.83;;;3.87;;
11443;SDS011;5778;47.856;12.154;2023-10-13T03:16:14;5.40;;;3.70;;
11443;SDS011;5778;47.856;12.154;2023-10-13T03:18:45;5.10;;;3.70;;
11443;SDS011;5778;47.856;12.154;2023-10-13T03:21:19;8.53;;;4.17;;
11443;SDS011;5778;47.856;12.154;2023-10-13T03:23:57;5.63;;;4.00;;
11443;SDS011;5778;47.856;12.154;2023-10-13T03:26:32;7.53;;;4.07;;
11443;SDS011;5778;47.856;12.154;2023-10-13T03:29:09;5.57;;;3.93;;
11443;SDS011;5778;47.856;12.154;2023-10-13T03:31:40;5.03;;;3.87;;
11443;SDS011;5778;47.856;12.154;2023-10-13T03:34:10;6.00;;;4.23;;
11443;SDS011;5778;47.856;12.154;2023-10-13T03:36:38;6.20;;;3.60;;
11443;SDS011;5778;47.856;12.154;2023-10-13T03:39:23;6.40;;;3.53;;
11443;SDS011;5778;47.856;12.154;2023-10-13T03:41:55;7.07;;;4.17;;
11443;SDS011;5778;47.856;12.154;2023-10-13T03:44:24;5.57;;;4.00;;
11443;SDS011;5778;47.856;12.154;2023-10-13T03:46:57;6.00;;;4.37;;
11443;SDS011;5778;47.856;12.154;2023-10-13T03:49:34;6.67;;;4.40;;
11443;SDS011;5778;47.856;12.154;2023-10-13T03:52:03;7.70;;;4.50;;
11443;SDS011;5778;47.856;12.154;2023-10-13T03:54:31;5.03;;;4.03;;
11443;SDS011;5778;47.856;12.154;2023-10-13T03:57:00;5.83;;;3.80;;
11443;SDS011;5778;47.856;12.154;2023-10-13T03:59:36;5.10;;;3.77;;
11443;SDS011;5778;47.856;12.154;2023-10-13T04:02:05;6.67;;;3.70;;
11443;SDS011;5778;47.856;12.154;2023-10-13T04:04:38;6.90;;;4.30;;
11443;SDS011;5778;47.856;12.154;2023-10-13T04:07:14;4.50;;;3.80;;
11443;SDS011;5778;47.856;12.154;2023-10-13T04:09:55;4.73;;;4.17;;
11443;SDS011;5778;47.856;12.154;2023-10-13T04:12:44;5.33;;;3.97;;
11443;SDS011;5778;47.856;12.154;2023-10-13T04:15:28;5.00;;;3.47;;
11443;SDS011;5778;47.856;12.154;2023-10-13T04:18:08;6.30;;;4.27;;
11443;SDS011;5778;47.856;12.154;2023-10-13T04:20:59;6.77;;;4.33;;
11443;SDS011;5778;47.856;12.154;2023-10-13T04:23:44;8.93;;;4.30;;
11443;SDS011;5778;47.856;12.154;2023-10-13T04:26:25;6.73;;;4.17;;
11443;SDS011;5778;47.856;12.154;2023-10-13T04:29:02;7.77;;;4.60;;
11443;SDS011;5778;47.856;12.154;2023-10-13T04:31:36;5.33;;;4.00;;
11443;SDS011;5778;47.856;12.154;2023-10-13T04:34:26;5.87;;;4.37;;
11443;SDS011;5778;47.856;12.154;2023-10-13T04:37:02;8.00;;;4.00;;
11443;SDS011;5778;47.856;12.154;2023-10-13T04:39:48;6.90;;;4.27;;
11443;SDS011;5778;47.856;12.154;2023-10-13T04:42:22;5.20;;;3.77;;
11443;SDS011;5778;47.856;12.154;2023-10-13T04:45:05;7.10;;;4.53;;
11443;SDS011;5778;47.856;12.154;2023-10-13T04:47:53;6.03;;;4.07;;
11443;SDS011;5778;47.856;12.154;2023-10-13T04:50:41;6.17;;;3.80;;
11443;SDS011;5778;47.856;12.154;2023-10-13T04:53:12;4.53;;;3.67;;
11443;SDS011;5778;47.856;12.154;2023-10-13T04:55:53;7.13;;;4.17;;
11443;SDS011;5778;47.856;12.154;2023-10-13T04:58:33;6.27;;;3.90;;
11443;SDS011;5778;47.856;12.154;2023-10-13T05:01:31;8.40;;;3.97;;
11443;SDS011;5778;47.856;12.154;2023-10-13T05:04:16;5.53;;;3.93;;
11443;SDS011;5778;47.856;12.154;2023-10-13T05:07:04;6.87;;;3.97;;
11443;SDS011;5778;47.856;12.154;2023-10-13T05:09:49;7.57;;;3.93;;
11443;SDS011;5778;47.856;12.154;2023-10-13T05:12:33;8.43;;;3.90;;
11443;SDS011;5778;47.856;12.154;2023-10-13T05:15:18;5.23;;;3.80;;
11443;SDS011;5778;47.856;12.154;2023-10-13T05:18:02;8.07;;;3.97;;
11443;SDS011;5778;47.856;12.154;2023-10-13T05:20:47;7.23;;;4.07;;
11443;SDS011;5778;47.856;12.154;2023-10-13T05:23:32;6.07;;;4.03;;
11443;SDS011;5778;47.856;12.154;2023-10-13T05:26:17;7.40;;;4.30;;
11443;SDS011;5778;47.856;12.154;2023-10-13T05:29:01;7.07;;;4.13;;
11443;SDS011;5778;47.856;12.154;2023-10-13T05:31:45;6.37;;;4.17;;
11443;SDS011;5778;47.856;12.154;2023-10-13T05:34:29;9.77;;;4.43;;
11443;SDS011;5778;47.856;12.154;2023-10-13T05:37:13;9.13;;;4.97;;
11443;SDS011;5778;47.856;12.154;2023-10-13T05:39:59;5.67;;;4.07;;
11443;SDS011;5778;47.856;12.154;2023-10-13T05:42:43;7.67;;;4.73;;
11443;SDS011;5778;47.856;12.154;2023-10-13T05:45:27;9.47;;;4.33;;
11443;SDS011;5778;47.856;12.154;2023-10-13T05:48:23;6.90;;;4.10;;
11443;SDS011;5778;47.856;12.154;2023-10-13T05:51:07;4.00;;;3.60;;
11443;SDS011;5778;47.856;12.154;2023-10-13T05:54:03;7.30;;;4.70;;
11443;SDS011;5778;47.856;12.154;2023-10-13T05:56:51;9.47;;;4.47;;
11443;SDS011;5778;47.856;12.154;2023-10-13T05:59:36;5.87;;;4.33;;
11443;SDS011;5778;47.856;12.154;2023-10-13T06:02:21;7.80;;;4.73;;
11443;SDS011;5778;47.856;12.154;2023-10-13T06:05:07;6.27;;;4.60;;
11443;SDS011;5778;47.856;12.154;2023-10-13T06:07:52;7.47;;;4.60;;
11443;SDS011;5778;47.856;12.154;2023-10-13T06:10:37;8.60;;;5.03;;
11443;SDS011;5778;47.856;12.154;2023-10-13T06:13:23;9.87;;;4.77;;
11443;SDS011;5778;47.856;12.154;2023-10-13T06:16:07;7.33;;;4.27;;
11443;SDS011;5778;47.856;12.154;2023-10-13T06:18:53;8.30;;;4.97;;
11443;SDS011;5778;47.856;12.154;2023-10-13T06:21:37;6.40;;;3.97;;
11443;SDS011;5778;47.856;12.154;2023-10-13T06:24:21;5.53;;;4.17;;
11443;SDS011;5778;47.856;12.154;2023-10-13T06:27:06;8.10;;;3.97;;
11443;SDS011;5778;47.856;12.154;2023-10-13T06:29:52;7.73;;;5.30;;
11443;SDS011;5778;47.856;12.154;2023-10-13T06:32:19;7.53;;;4.73;;
11443;SDS011;5778;47.856;12.154;2023-10-13T06:34:51;7.83;;;5.90;;
11443;SDS011;5778;47.856;12.154;2023-10-13T06:37:22;8.60;;;5.50;;
11443;SDS011;5778;47.856;12.154;2023-10-13T06:39:51;8.70;;;5.60;;
11443;SDS011;5778;47.856;12.154;2023-10-13T06:42:21;7.93;;;5.50;;
11443;SDS011;5778;47.856;12.154;2023-10-13T06:44:53;8.80;;;5.30;;
11443;SDS011;5778;47.856;12.154;2023-10-13T06:47:20;10.30;;;5.40;;
11443;SDS011;5778;47.856;12.154;2023-10-13T06:49:47;9.80;;;4.93;;
11443;SDS011;5778;47.856;12.154;2023-10-13T06:52:16;6.70;;;4.80;;
11443;SDS011;5778;47.856;12.154;2023-10-13T06:54:43;8.10;;;4.97;;
11443;SDS011;5778;47.856;12.154;2023-10-13T06:57:11;6.87;;;4.77;;
11443;SDS011;5778;47.856;12.154;2023-10-13T06:59:40;6.53;;;4.47;;
11443;SDS011;5778;47.856;12.154;2023-10-13T07:02:09;10.43;;;4.50;;
11443;SDS011;5778;47.856;12.154;2023-10-13T07:04:45;6.87;;;4.43;;
11443;SDS011;5778;47.856;12.154;2023-10-13T07:07:12;6.10;;;3.60;;
11443;SDS011;5778;47.856;12.154;2023-10-13T07:09:41;10.63;;;4.27;;
11443;SDS011;5778;47.856;12.154;2023-10-13T07:12:14;18.03;;;5.53;;
11443;SDS011;5778;47.856;12.154;2023-10-13T07:14:48;10.47;;;4.70;;
11443;SDS011;5778;47.856;12.154;2023-10-13T07:17:19;8.10;;;3.50;;
11443;SDS011;5778;47.856;12.154;2023-10-13T07:19:50;7.33;;;3.90;;
11443;SDS011;5778;47.856;12.154;2023-10-13T07:22:22;4.50;;;3.50;;
11443;SDS011;5778;47.856;12.154;2023-10-13T07:24:51;5.10;;;3.50;;
11443;SDS011;5778;47.856;12.154;2023-10-13T07:27:18;7.07;;;3.27;;
11443;SDS011;5778;47.856;12.154;2023-10-13T07:29:50;6.57;;;3.13;;
11443;SDS011;5778;47.856;12.154;2023-10-13T07:32:33;5.33;;;3.00;;
11443;SDS011;5778;47.856;12.154;2023-10-13T07:35:00;6.03;;;3.43;;
11443;SDS011;5778;47.856;12.154;2023-10-13T07:37:32;7.60;;;3.40;;
11443;SDS011;5778;47.856;12.154;2023-10-13T07:39:59;5.53;;;3.27;;
11443;SDS011;5778;47.856;12.154;2023-10-13T07:42:26;4.40;;;2.90;;
11443;SDS011;5778;47.856;12.154;2023-10-13T07:44:57;4.10;;;3.07;;
11443;SDS011;5778;47.856;12.154;2023-10-13T07:47:24;8.27;;;3.10;;
11443;SDS011;5778;47.856;12.154;2023-10-13T07:49:54;6.60;;;3.37;;
11443;SDS011;5778;47.856;12.154;2023-10-13T07:52:22;4.53;;;3.00;;
11443;SDS011;5778;47.856;12.154;2023-10-13T07:55:03;4.37;;;2.90;;
11443;SDS011;5778;47.856;12.154;2023-10-13T07:57:45;6.73;;;3.33;;
11443;SDS011;5778;47.856;12.154;2023-10-13T08:00:22;3.90;;;3.07;;
11443;SDS011;5778;47.856;12.154;2023-10-13T08:02:55;3.50;;;2.90;;
11443;SDS011;5778;47.856;12.154;2023-10-13T08:05:34;4.53;;;2.90;;
11443;SDS011;5778;47.856;12.154;2023-10-13T08:08:21;3.87;;;2.70;;
11443;SDS011;5778;47.856;12.154;2023-10-13T08:10:51;3.37;;;2.60;;
11443;SDS011;5778;47.856;12.154;2023-10-13T08:13:21;8.77;;;2.90;;
11443;SDS011;5778;47.856;12.154;2023-10-13T08:15:49;5.00;;;3.00;;
11443;SDS011;5778;47.856;12.154;2023-10-13T08:18:17;5.47;;;2.43;;
11443;SDS011;5778;47.856;12.154;2023-10-13T08:20:58;3.10;;;2.50;;
11443;SDS011;5778;47.856;12.154;2023-10-13T08:23:29;6.37;;;2.77;;
11443;SDS011;5778;47.856;12.154;2023-10-13T08:26:16;4.50;;;2.63;;
11443;SDS011;5778;47.856;12.154;2023-10-13T08:29:00;4.10;;;2.80;;
11443;SDS011;5778;47.856;12.154;2023-10-13T08:31:49;3.87;;;2.80;;
11443;SDS011;5778;47.856;12.154;2023-10-13T08:34:39;8.00;;;3.00;;
11443;SDS011;5778;47.856;12.154;2023-10-13T08:37:26;5.07;;;2.50;;
11443;SDS011;5778;47.856;12.154;2023-10-13T08:39:59;8.00;;;2.93;;
11443;SDS011;5778;47.856;12.154;2023-10-13T08:42:40;6.27;;;2.80;;
11443;SDS011;5778;47.856;12.154;2023-10-13T08:45:18;3.00;;;2.30;;
11443;SDS011;5778;47.856;12.154;2023-10-13T08:48:07;6.50;;;2.37;;
11443;SDS011;5778;47.856;12.154;2023-10-13T08:50:42;3.17;;;2.73;;
11443;SDS011;5778;47.856;12.154;2023-10-13T08:53:20;4.67;;;2.40;;
11443;SDS011;5778;47.856;12.154;2023-10-13T08:55:57;6.63;;;2.67;;
11443;SDS011;5778;47.856;12.154;2023-10-13T08:58:34;4.47;;;2.47;;
11443;SDS011;5778;47.856;12.154;2023-10-13T09:01:20;5.90;;;2.60;;
11443;SDS011;5778;47.856;12.154;2023-10-13T09:04:05;4.00;;;2.67;;
11443;SDS011;5778;47.856;12.154;2023-10-13T09:06:48;7.07;;;2.87;;
11443;SDS011;5778;47.856;12.154;2023-10-13T09:09:32;7.23;;;2.70;;
11443;SDS011;5778;47.856;12.154;2023-10-13T09:12:10;6.97;;;2.60;;
11443;SDS011;5778;47.856;12.154;2023-10-13T09:14:36;5.20;;;2.47;;
11443;SDS011;5778;47.856;12.154;2023-10-13T09:17:08;5.87;;;2.47;;
11443;SDS011;5778;47.856;12.154;2023-10-13T09:19:44;7.83;;;2.60;;
11443;SDS011;5778;47.856;12.154;2023-10-13T09:22:24;7.37;;;3.00;;
11443;SDS011;5778;47.856;12.154;2023-10-13T09:25:02;5.93;;;2.93;;
11443;SDS011;5778;47.856;12.154;2023-10-13T09:27:30;5.77;;;2.63;;
11443;SDS011;5778;47.856;12.154;2023-10-13T09:30:03;4.27;;;2.80;;
11443;SDS011;5778;47.856;12.154;2023-10-13T09:32:35;13.40;;;3.20;;
11443;SDS011;5778;47.856;12.154;2023-10-13T09:35:11;7.23;;;3.23;;
11443;SDS011;5778;47.856;12.154;2023-10-13T09:37:44;6.60;;;2.93;;
11443;SDS011;5778;47.856;12.154;2023-10-13T09:40:17;6.20;;;2.90;;
11443;SDS011;5778;47.856;12.154;2023-10-13T09:42:58;8.00;;;3.00;;
11443;SDS011;5778;47.856;12.154;2023-10-13T09:45:31;5.83;;;2.77;;
11443;SDS011;5778;47.856;12.154;2023-10-13T09:48:01;6.27;;;2.70;;
11443;SDS011;5778;47.856;12.154;2023-10-13T09:50:33;5.60;;;2.83;;
11443;SDS011;5778;47.856;12.154;2023-10-13T09:53:04;7.53;;;3.10;;
11443;SDS011;5778;47.856;12.154;2023-10-13T09:55:38;5.97;;;2.70;;
11443;SDS011;5778;47.856;12.154;2023-10-13T09:58:10;4.40;;;2.60;;
11443;SDS011;5778;47.856;12.154;2023-10-13T10:00:41;9.13;;;2.90;;
11443;SDS011;5778;47.856;12.154;2023-10-13T10:03:12;5.20;;;2.50;;
11443;SDS011;5778;47.856;12.154;2023-10-13T10:05:55;6.23;;;2.90;;
11443;SDS011;5778;47.856;12.154;2023-10-13T10:08:29;4.30;;;2.23;;
11443;SDS011;5778;47.856;12.154;2023-10-13T10:14:02;3.57;;;2.10;;
11443;SDS011;5778;47.856;12.154;2023-10-13T10:16:39;4.47;;;2.37;;
11443;SDS011;5778;47.856;12.154;2023-10-13T10:19:14;8.20;;;2.53;;
11443;SDS011;5778;47.856;12.154;2023-10-13T10:21:40;5.47;;;2.73;;
11443;SDS011;5778;47.856;12.154;2023-10-13T10:24:15;4.27;;;2.70;;
11443;SDS011;5778;47.856;12.154;2023-10-13T10:26:56;7.27;;;2.60;;
11443;SDS011;5778;47.856;12.154;2023-10-13T10:29:23;3.90;;;2.60;;
11443;SDS011;5778;47.856;12.154;2023-10-13T10:31:51;5.53;;;2.67;;
11443;SDS011;5778;47.856;12.154;2023-10-13T10:34:18;9.27;;;3.20;;
11443;SDS011;5778;47.856;12.154;2023-10-13T10:36:46;5.30;;;2.60;;
11443;SDS011;5778;47.856;12.154;2023-10-13T10:39:12;6.43;;;2.97;;
11443;SDS011;5778;47.856;12.154;2023-10-13T10:41:40;5.37;;;2.70;;
11443;SDS011;5778;47.856;12.154;2023-10-13T10:44:18;5.07;;;2.50;;
11443;SDS011;5778;47.856;12.154;2023-10-13T10:47:08;5.70;;;2.70;;
11443;SDS011;5778;47.856;12.154;2023-10-13T10:49:37;2.83;;;2.23;;
11443;SDS011;5778;47.856;12.154;2023-10-13T10:52:06;5.07;;;2.73;;
11443;SDS011;5778;47.856;12.154;2023-10-13T10:54:43;5.83;;;2.67;;
11443;SDS011;5778;47.856;12.154;2023-10-13T10:57:17;6.60;;;2.57;;
11443;SDS011;5778;47.856;12.154;2023-10-13T10:59:45;5.07;;;2.47;;
11443;SDS011;5778;47.856;12.154;2023-10-13T11:02:29;5.80;;;2.80;;
11443;SDS011;5778;47.856;12.154;2023-10-13T11:04:57;3.77;;;2.57;;
11443;SDS011;5778;47.856;12.154;2023-10-13T11:07:24;5.40;;;2.70;;
11443;SDS011;5778;47.856;12.154;2023-10-13T11:09:53;5.17;;;2.80;;
11443;SDS011;5778;47.856;12.154;2023-10-13T11:12:32;5.20;;;2.50;;
11443;SDS011;5778;47.856;12.154;2023-10-13T11:15:01;7.07;;;2.30;;
11443;SDS011;5778;47.856;12.154;2023-10-13T11:17:30;4.23;;;2.67;;
11443;SDS011;5778;47.856;12.154;2023-10-13T11:20:10;5.43;;;2.80;;
11443;SDS011;5778;47.856;12.154;2023-10-13T11:22:51;3.43;;;2.10;;
11443;SDS011;5778;47.856;12.154;2023-10-13T11:25:22;6.10;;;2.73;;
11443;SDS011;5778;47.856;12.154;2023-10-13T11:27:55;6.50;;;2.60;;
11443;SDS011;5778;47.856;12.154;2023-10-13T11:30:26;4.30;;;2.20;;
11443;SDS011;5778;47.856;12.154;2023-10-13T11:33:07;5.30;;;2.50;;
11443;SDS011;5778;47.856;12.154;2023-10-13T11:35:35;4.38;;;2.20;;
11443;SDS011;5778;47.856;12.154;2023-10-13T11:38:20;6.80;;;2.20;;
11443;SDS011;5778;47.856;12.154;2023-10-13T11:40:52;8.05;;;2.40;;
11443;SDS011;5778;47.856;12.154;2023-10-13T11:43:34;3.87;;;2.63;;
11443;SDS011;5778;47.856;12.154;2023-10-13T11:46:11;8.05;;;2.22;;
11443;SDS011;5778;47.856;12.154;2023-10-13T11:48:40;4.40;;;2.08;;
11443;SDS011;5778;47.856;12.154;2023-10-13T11:51:08;5.65;;;2.38;;
11443;SDS011;5778;47.856;12.154;2023-10-13T11:53:42;5.97;;;2.65;;
11443;SDS011;5778;47.856;12.154;2023-10-13T11:56:10;3.95;;;2.72;;
11443;SDS011;5778;47.856;12.154;2023-10-13T11:58:37;4.90;;;2.35;;
11443;SDS011;5778;47.856;12.154;2023-10-13T12:01:05;5.15;;;2.22;;
11443;SDS011;5778;47.856;12.154;2023-10-13T12:03:47;4.10;;;2.20;;
11443;SDS011;5778;47.856;12.154;2023-10-13T12:06:33;5.63;;;2.20;;
11443;SDS011;5778;47.856;12.154;2023-10-13T12:09:12;5.68;;;2.40;;
11443;SDS011;5778;47.856;12.154;2023-10-13T12:11:57;5.28;;;2.55;;
11443;SDS011;5778;47.856;12.154;2023-10-13T12:14:26;4.53;;;2.22;;
11443;SDS011;5778;47.856;12.154;2023-10-13T12:16:55;3.28;;;2.28;;
11443;SDS011;5778;47.856;12.154;2023-10-13T12:19:30;3.35;;;1.83;;
11443;SDS011;5778;47.856;12.154;2023-10-13T12:21:57;4.60;;;2.33;;
11443;SDS011;5778;47.856;12.154;2023-10-13T12:24:30;2.60;;;2.00;;
11443;SDS011;5778;47.856;12.154;2023-10-13T12:27:05;2.72;;;1.85;;
11443;SDS011;5778;47.856;12.154;2023-10-13T12:29:44;3.88;;;2.05;;
11443;SDS011;5778;47.856;12.154;2023-10-13T12:32:12;3.88;;;2.05;;
11443;SDS011;5778;47.856;12.154;2023-10-13T12:34:41;4.50;;;1.95;;
11443;SDS011;5778;47.856;12.154;2023-10-13T12:37:26;5.63;;;2.17;;
11443;SDS011;5778;47.856;12.154;2023-10-13T12:40:16;3.35;;;1.95;;
11443;SDS011;5778;47.856;12.154;2023-10-13T12:43:01;5.05;;;1.98;;
11443;SDS011;5778;47.856;12.154;2023-10-13T12:45:47;3.38;;;1.73;;
11443;SDS011;5778;47.856;12.154;2023-10-13T12:48:33;4.97;;;1.75;;
11443;SDS011;5778;47.856;12.154;2023-10-13T12:51:21;2.53;;;1.77;;
11443;SDS011;5778;47.856;12.154;2023-10-13T12:54:05;2.05;;;1.70;;
11443;SDS011;5778;47.856;12.154;2023-10-13T12:56:41;4.80;;;1.90;;
11443;SDS011;5778;47.856;12.154;2023-10-13T12:59:08;2.92;;;1.65;;
11443;SDS011;5778;47.856;12.154;2023-10-13T13:01:39;7.20;;;2.30;;
11443;SDS011;5778;47.856;12.154;2023-10-13T13:04:07;5.40;;;1.80;;
11443;SDS011;5778;47.856;12.154;2023-10-13T13:06:43;2.75;;;1.70;;
11443;SDS011;5778;47.856;12.154;2023-10-13T13:09:10;5.40;;;2.00;;
11443;SDS011;5778;47.856;12.154;2023-10-13T13:11:37;3.88;;;2.20;;
11443;SDS011;5778;47.856;12.154;2023-10-13T13:14:05;3.80;;;2.25;;
11443;SDS011;5778;47.856;12.154;2023-10-13T13:16:34;3.72;;;2.10;;
11443;SDS011;5778;47.856;12.154;2023-10-13T13:19:04;3.60;;;1.63;;
11443;SDS011;5778;47.856;12.154;2023-10-13T13:21:36;3.53;;;2.35;;
11443;SDS011;5778;47.856;12.154;2023-10-13T13:24:09;5.55;;;2.20;;
11443;SDS011;5778;47.856;12.154;2023-10-13T13:26:41;5.03;;;2.30;;
11443;SDS011;5778;47.856;12.154;2023-10-13T13:29:09;6.20;;;2.30;;
11443;SDS011;5778;47.856;12.154;2023-10-13T13:31:36;4.63;;;2.30;;
11443;SDS011;5778;47.856;12.154;2023-10-13T13:34:11;9.93;;;2.72;;
11443;SDS011;5778;47.856;12.154;2023-10-13T13:36:46;5.28;;;2.83;;
11443;SDS011;5778;47.856;12.154;2023-10-13T13:39:19;4.18;;;2.25;;
11443;SDS011;5778;47.856;12.154;2023-10-13T13:41:54;4.88;;;2.63;;
11443;SDS011;5778;47.856;12.154;2023-10-13T13:44:23;7.78;;;2.40;;
11443;SDS011;5778;47.856;12.154;2023-10-13T13:47:00;7.65;;;2.63;;
11443;SDS011;5778;47.856;12.154;2023-10-13T13:49:30;5.72;;;2.28;;
11443;SDS011;5778;47.856;12.154;2023-10-13T13:52:05;7.90;;;2.20;;
11443;SDS011;5778;47.856;12.154;2023-10-13T13:54:36;5.70;;;2.30;;
11443;SDS011;5778;47.856;12.154;2023-10-13T13:57:06;5.03;;;1.98;;
11443;SDS011;5778;47.856;12.154;2023-10-13T13:59:33;4.65;;;2.33;;
11443;SDS011;5778;47.856;12.154;2023-10-13T14:02:01;5.00;;;2.40;;
11443;SDS011;5778;47.856;12.154;2023-10-13T14:04:44;2.72;;;1.90;;
11443;SDS011;5778;47.856;12.154;2023-10-13T14:07:13;6.18;;;2.50;;
11443;SDS011;5778;47.856;12.154;2023-10-13T14:09:45;6.13;;;2.25;;
11443;SDS011;5778;47.856;12.154;2023-10-13T14:12:17;6.15;;;2.60;;
11443;SDS011;5778;47.856;12.154;2023-10-13T14:15:01;12.60;;;3.13;;
11443;SDS011;5778;47.856;12.154;2023-10-13T14:17:28;3.85;;;2.22;;
11443;SDS011;5778;47.856;12.154;2023-10-13T14:20:00;6.28;;;2.08;;
11443;SDS011;5778;47.856;12.154;2023-10-13T14:22:34;6.82;;;2.53;;
11443;SDS011;5778;47.856;12.154;2023-10-13T14:25:07;4.20;;;2.35;;
11443;SDS011;5778;47.856;12.154;2023-10-13T14:27:40;5.30;;;2.25;;
11443;SDS011;5778;47.856;12.154;2023-10-13T14:30:08;6.72;;;2.63;;
11443;SDS011;5778;47.856;12.154;2023-10-13T14:32:47;5.63;;;2.20;;
11443;SDS011;5778;47.856;12.154;2023-10-13T14:35:18;5.45;;;2.30;;
11443;SDS011;5778;47.856;12.154;2023-10-13T14:37:45;4.40;;;2.00;;
11443;SDS011;5778;47.856;12.154;2023-10-13T14:40:15;4.38;;;1.90;;
11443;SDS011;5778;47.856;12.154;2023-10-13T14:42:46;5.43;;;2.40;;
11443;SDS011;5778;47.856;12.154;2023-10-13T14:45:14;6.20;;;2.45;;
11443;SDS011;5778;47.856;12.154;2023-10-13T14:47:43;5.40;;;2.33;;
11443;SDS011;5778;47.856;12.154;2023-10-13T14:50:10;3.08;;;2.13;;
11443;SDS011;5778;47.856;12.154;2023-10-13T14:52:45;4.72;;;2.22;;
11443;SDS011;5778;47.856;12.154;2023-10-13T14:55:15;3.13;;;2.33;;
11443;SDS011;5778;47.856;12.154;2023-10-13T14:57:47;4.45;;;2.20;;
11443;SDS011;5778;47.856;12.154;2023-10-13T15:00:18;10.10;;;2.95;;
11443;SDS011;5778;47.856;12.154;2023-10-13T15:02:51;7.07;;;2.50;;
11443;SDS011;5778;47.856;12.154;2023-10-13T15:05:19;3.63;;;2.20;;
11443;SDS011;5778;47.856;12.154;2023-10-13T15:07:46;3.00;;;2.20;;
11443;SDS011;5778;47.856;12.154;2023-10-13T15:10:17;4.55;;;2.20;;
11443;SDS011;5778;47.856;12.154;2023-10-13T15:12:44;3.80;;;2.30;;
11443;SDS011;5778;47.856;12.154;2023-10-13T15:15:12;4.72;;;2.38;;
11443;SDS011;5778;47.856;12.154;2023-10-13T15:17:44;9.80;;;3.42;;
11443;SDS011;5778;47.856;12.154;2023-10-13T15:20:15;11.85;;;2.88;;
11443;SDS011;5778;47.856;12.154;2023-10-13T15:22:42;4.47;;;2.40;;
11443;SDS011;5778;47.856;12.154;2023-10-13T15:25:10;6.15;;;2.60;;
11443;SDS011;5778;47.856;12.154;2023-10-13T15:27:47;7.25;;;2.60;;
11443;SDS011;5778;47.856;12.154;2023-10-13T15:30:21;11.13;;;3.20;;
11443;SDS011;5778;47.856;12.154;2023-10-13T15:32:52;7.43;;;2.58;;